Time,TemperatureF,DewpointF,PressureIn,WindDirection,WindDirectionDegrees,WindSpeedMPH,WindSpeedGustMPH,Humidity,HourlyPrecipIn,Conditions,Clouds,dailyrainin,SolarRadiationWatts/m^2,SoftwareType,DateUTC
2013-03-02 00:07:00,26.4,22.0,30.12,North,4,6.0,-999.0,83,-99.99,,,0.00,0,weatherlink.com 1.10,2013-03-02 05:07:00,
2013-03-02 00:22:00,26.1,21.0,30.11,NE,37,7.0,-999.0,82,-99.99,,,0.00,0,weatherlink.com 1.10,2013-03-02 05:22:00,
2013-03-02 00:37:00,26.0,21.0,30.12,NE,43,5.0,-999.0,82,-99.99,,,0.00,0,weatherlink.com 1.10,2013-03-02 05:37:00,
2013-03-02 00:52:00,26.0,21.0,30.12,NNE,13,8.0,-999.0,82,-99.99,,,0.00,0,weatherlink.com 1.10,2013-03-02 05:52:00,
2013-03-02 01:07:00,25.8,21.0,30.12,NNE,20,8.0,-999.0,81,-99.99,,,0.00,0,weatherlink.com 1.10,2013-03-02 06:07:00,
2013-03-02 01:22:00,25.8,21.0,30.11,North,8,7.0,-999.0,82,-99.99,,,0.00,0,weatherlink.com 1.10,2013-03-02 06:22:00,
2013-03-02 01:37:00,25.4,20.0,30.11,North,349,5.0,-999.0,81,-99.99,,,0.00,0,weatherlink.com 1.10,2013-03-02 06:37:00,
2013-03-02 01:52:00,25.7,20.0,30.11,North,4,6.0,-999.0,80,-99.99,,,0.00,0,weatherlink.com 1.10,2013-03-02 06:52:00,
2013-03-02 02:07:00,25.7,20.0,30.11,North,4,6.0,-999.0,80,-99.99,,,0.00,0,weatherlink.com 1.10,2013-03-02 07:07:00,
2013-03-02 02:22:00,25.7,20.0,30.12,NE,35,7.0,-999.0,79,-99.99,,,0.00,0,weatherlink.com 1.10,2013-03-02 07:22:00,
2013-03-02 02:37:00,25.6,20.0,30.11,ENE,66,4.0,-999.0,78,-99.99,,,0.00,0,weatherlink.com 1.10,2013-03-02 07:37:00,
2013-03-02 02:52:00,25.8,20.0,30.11,NE,48,5.0,-999.0,79,-99.99,,,0.00,0,weatherlink.com 1.10,2013-03-02 07:52:00,
2013-03-02 03:07:00,25.9,20.0,30.11,NNE,31,5.0,-999.0,78,-99.99,,,0.00,0,weatherlink.com 1.10,2013-03-02 08:07:00,
2013-03-02 03:22:00,26.0,20.0,30.11,NE,34,4.0,-999.0,78,-99.99,,,0.00,0,weatherlink.com 1.10,2013-03-02 08:22:00,
2013-03-02 03:37:00,26.1,20.0,30.10,NNE,13,3.0,-999.0,79,-99.99,,,0.00,0,weatherlink.com 1.10,2013-03-02 08:37:00,
2013-03-02 03:52:00,26.1,20.0,30.10,NNE,21,3.0,-999.0,79,-99.99,,,0.00,0,weatherlink.com 1.10,2013-03-02 08:52:00,
2013-03-02 04:07:00,26.1,20.0,30.10,NNW,348,4.0,-999.0,79,-99.99,,,0.00,0,weatherlink.com 1.10,2013-03-02 09:07:00,
2013-03-02 04:22:00,26.1,20.0,30.10,NNW,339,4.0,-999.0,79,-99.99,,,0.00,0,weatherlink.com 1.10,2013-03-02 09:22:00,
2013-03-02 04:37:00,26.2,21.0,30.10,NNW,348,5.0,-999.0,79,-99.99,,,0.00,0,weatherlink.com 1.10,2013-03-02 09:37:00,
2013-03-02 04:52:00,26.2,21.0,30.10,NNW,343,3.0,-999.0,80,-99.99,,,0.00,0,weatherlink.com 1.10,2013-03-02 09:52:00,
2013-03-02 05:22:00,26.3,21.0,30.10,NNW,333,4.0,-999.0,80,-99.99,,,0.00,0,weatherlink.com 1.10,2013-03-02 10:22:00,
2013-03-02 05:37:00,26.4,21.0,30.10,North,4,4.0,-999.0,80,-99.99,,,0.00,0,weatherlink.com 1.10,2013-03-02 10:37:00,
2013-03-02 05:52:00,26.5,21.0,30.09,NNW,336,6.0,-999.0,78,-99.99,,,0.00,0,weatherlink.com 1.10,2013-03-02 10:52:00,
2013-03-02 06:07:00,26.8,21.0,30.10,NNW,346,4.0,-999.0,77,-99.99,,,0.00,0,weatherlink.com 1.10,2013-03-02 11:07:00,
2013-03-02 06:22:00,26.9,21.0,30.10,North,354,5.0,-999.0,77,-99.99,,,0.00,0,weatherlink.com 1.10,2013-03-02 11:22:00,
2013-03-02 06:37:00,27.0,20.0,30.09,North,359,6.0,-999.0,76,-99.99,,,0.00,0,weatherlink.com 1.10,2013-03-02 11:37:00,
2013-03-02 06:52:00,26.9,20.0,30.09,North,359,6.0,-999.0,74,-99.99,,,0.00,0,weatherlink.com 1.10,2013-03-02 11:52:00,
2013-03-02 07:07:00,26.9,21.0,30.10,North,10,12.0,-999.0,77,-99.99,,,0.00,0,weatherlink.com 1.10,2013-03-02 12:07:00,
2013-03-02 07:22:00,26.7,19.0,30.10,NNW,330,7.0,-999.0,74,-99.99,,,0.00,0,weatherlink.com 1.10,2013-03-02 12:22:00,
2013-03-02 07:37:00,26.6,19.0,30.10,NNW,340,11.0,-999.0,73,-99.99,,,0.00,5,weatherlink.com 1.10,2013-03-02 12:37:00,
2013-03-02 07:52:00,26.8,20.0,30.11,North,359,6.0,-999.0,74,-99.99,,,0.00,11,weatherlink.com 1.10,2013-03-02 12:52:00,
2013-03-02 08:07:00,26.7,19.0,30.11,North,4,12.0,-999.0,74,-99.99,,,0.00,16,weatherlink.com 1.10,2013-03-02 13:07:00,
2013-03-02 08:22:00,26.7,20.0,30.12,NNW,338,9.0,-999.0,75,-99.99,,,0.00,25,weatherlink.com 1.10,2013-03-02 13:22:00,
2013-03-02 08:37:00,26.5,19.0,30.12,North,4,10.0,-999.0,73,-99.99,,,0.00,39,weatherlink.com 1.10,2013-03-02 13:37:00,
2013-03-02 08:52:00,26.3,19.0,30.12,North,359,7.0,-999.0,74,-99.99,,,0.00,46,weatherlink.com 1.10,2013-03-02 13:52:00,
2013-03-02 09:07:00,26.7,19.0,30.12,North,354,6.0,-999.0,74,-99.99,,,0.00,105,weatherlink.com 1.10,2013-03-02 14:07:00,
2013-03-02 09:22:00,27.0,19.0,30.12,North,8,6.0,-999.0,72,-99.99,,,0.00,111,weatherlink.com 1.10,2013-03-02 14:22:00,
2013-03-02 09:37:00,27.2,19.0,30.12,North,4,6.0,-999.0,72,-99.99,,,0.00,151,weatherlink.com 1.10,2013-03-02 14:37:00,
2013-03-02 09:52:00,27.8,20.0,30.12,North,4,6.0,-999.0,72,-99.99,,,0.00,200,weatherlink.com 1.10,2013-03-02 14:52:00,
2013-03-02 10:07:00,27.8,20.0,30.12,NNW,333,8.0,-999.0,71,-99.99,,,0.00,181,weatherlink.com 1.10,2013-03-02 15:07:00,
2013-03-02 10:22:00,27.8,20.0,30.12,NNE,12,9.0,-999.0,72,-99.99,,,0.00,146,weatherlink.com 1.10,2013-03-02 15:22:00,
2013-03-02 10:37:00,27.8,20.0,30.12,North,10,7.0,-999.0,73,-99.99,,,0.00,118,weatherlink.com 1.10,2013-03-02 15:37:00,
2013-03-02 10:52:00,27.8,21.0,30.12,North,359,4.0,-999.0,74,-99.99,,,0.00,174,weatherlink.com 1.10,2013-03-02 15:52:00,
2013-03-02 11:07:00,28.1,21.0,30.12,North,359,5.0,-999.0,74,-99.99,,,0.00,269,weatherlink.com 1.10,2013-03-02 16:07:00,
2013-03-02 11:22:00,28.5,21.0,30.12,NNW,331,12.0,-999.0,72,-99.99,,,0.00,355,weatherlink.com 1.10,2013-03-02 16:22:00,
2013-03-02 11:37:00,28.2,20.0,30.11,NW,310,6.0,-999.0,71,-99.99,,,0.00,220,weatherlink.com 1.10,2013-03-02 16:37:00,
2013-03-02 11:52:00,28.8,20.0,30.12,NNE,12,12.0,-999.0,69,-99.99,,,0.00,406,weatherlink.com 1.10,2013-03-02 16:52:00,
2013-03-02 12:07:00,28.9,21.0,30.12,North,4,5.0,-999.0,72,-99.99,,,0.00,279,weatherlink.com 1.10,2013-03-02 17:07:00,
2013-03-02 12:22:00,28.8,19.0,30.12,NNW,329,10.0,-999.0,68,-99.99,,,0.00,309,weatherlink.com 1.10,2013-03-02 17:22:00,
2013-03-02 12:37:00,29.8,20.0,30.11,NNW,341,11.0,-999.0,68,-99.99,,,0.00,408,weatherlink.com 1.10,2013-03-02 17:37:00,
2013-03-02 12:52:00,29.9,20.0,30.11,NNW,345,9.0,-999.0,68,-99.99,,,0.00,313,weatherlink.com 1.10,2013-03-02 17:52:00,
2013-03-02 13:07:00,30.0,20.0,30.11,NNW,329,13.0,-999.0,66,-99.99,,,0.00,424,weatherlink.com 1.10,2013-03-02 18:07:00,
2013-03-02 13:22:00,29.9,20.0,30.10,NNE,31,7.0,-999.0,68,-99.99,,,0.00,385,weatherlink.com 1.10,2013-03-02 18:22:00,
2013-03-02 13:37:00,30.4,20.0,30.09,North,349,7.0,-999.0,65,-99.99,,,0.00,381,weatherlink.com 1.10,2013-03-02 18:37:00,
2013-03-02 13:52:00,30.3,20.0,30.09,NNW,344,6.0,-999.0,67,-99.99,,,0.00,821,weatherlink.com 1.10,2013-03-02 18:52:00,
2013-03-02 14:07:00,31.3,21.0,30.09,North,359,9.0,-999.0,65,-99.99,,,0.00,861,weatherlink.com 1.10,2013-03-02 19:07:00,
2013-03-02 14:22:00,31.5,22.0,30.08,WNW,289,11.0,-999.0,67,-99.99,,,0.00,905,weatherlink.com 1.10,2013-03-02 19:22:00,
2013-03-02 14:37:00,31.7,22.0,30.08,North,4,6.0,-999.0,67,-99.99,,,0.00,728,weatherlink.com 1.10,2013-03-02 19:37:00,
2013-03-02 14:52:00,31.4,20.0,30.08,North,354,6.0,-999.0,63,-99.99,,,0.00,244,weatherlink.com 1.10,2013-03-02 19:52:00,
2013-03-02 15:07:00,32.5,21.0,30.07,NNW,330,9.0,-999.0,64,-99.99,,,0.00,290,weatherlink.com 1.10,2013-03-02 20:07:00,
2013-03-02 15:22:00,32.3,21.0,30.07,NNE,12,10.0,-999.0,63,-99.99,,,0.00,696,weatherlink.com 1.10,2013-03-02 20:22:00,
2013-03-02 15:37:00,33.1,21.0,30.07,NW,325,8.0,-999.0,62,-99.99,,,0.00,258,weatherlink.com 1.10,2013-03-02 20:37:00,
2013-03-02 15:52:00,32.6,22.0,30.07,North,354,13.0,-999.0,66,-99.99,,,0.00,241,weatherlink.com 1.10,2013-03-02 20:52:00,
2013-03-02 16:07:00,32.2,22.0,30.07,NW,312,4.0,-999.0,66,-99.99,,,0.00,171,weatherlink.com 1.10,2013-03-02 21:07:00,
2013-03-02 16:22:00,32.2,22.0,30.07,NW,313,7.0,-999.0,66,-99.99,,,0.00,130,weatherlink.com 1.10,2013-03-02 21:22:00,
2013-03-02 16:37:00,32.0,22.0,30.07,North,4,8.0,-999.0,66,-99.99,,,0.00,125,weatherlink.com 1.10,2013-03-02 21:37:00,
2013-03-02 16:52:00,31.4,22.0,30.08,North,4,9.0,-999.0,69,-99.99,,,0.00,139,weatherlink.com 1.10,2013-03-02 21:52:00,
2013-03-02 17:07:00,31.7,22.0,30.08,North,359,8.0,-999.0,68,-99.99,,,0.00,265,weatherlink.com 1.10,2013-03-02 22:07:00,
2013-03-02 17:22:00,31.3,22.0,30.09,NW,324,6.0,-999.0,68,-99.99,,,0.00,67,weatherlink.com 1.10,2013-03-02 22:22:00,
2013-03-02 17:37:00,30.8,22.0,30.09,NNW,347,5.0,-999.0,70,-99.99,,,0.00,84,weatherlink.com 1.10,2013-03-02 22:37:00,
2013-03-02 17:52:00,30.6,23.0,30.09,North,354,3.0,-999.0,72,-99.99,,,0.00,35,weatherlink.com 1.10,2013-03-02 22:52:00,
2013-03-02 18:07:00,30.5,22.0,30.09,NW,312,4.0,-999.0,72,-99.99,,,0.00,19,weatherlink.com 1.10,2013-03-02 23:07:00,
2013-03-02 18:22:00,29.9,21.0,30.09,North,4,8.0,-999.0,70,-99.99,,,0.00,11,weatherlink.com 1.10,2013-03-02 23:22:00,
2013-03-02 18:37:00,29.7,21.0,30.10,NNW,337,6.0,-999.0,71,-99.99,,,0.00,0,weatherlink.com 1.10,2013-03-02 23:37:00,
2013-03-02 18:52:00,29.5,21.0,30.10,North,359,11.0,-999.0,70,-99.99,,,0.00,0,weatherlink.com 1.10,2013-03-02 23:52:00,
2013-03-02 19:07:00,29.2,21.0,30.11,North,354,9.0,-999.0,72,-99.99,,,0.00,0,weatherlink.com 1.10,2013-03-03 00:07:00,
2013-03-02 19:22:00,28.8,21.0,30.11,NNW,339,8.0,-999.0,72,-99.99,,,0.00,0,weatherlink.com 1.10,2013-03-03 00:22:00,
2013-03-02 19:37:00,28.7,22.0,30.11,NNW,345,11.0,-999.0,75,-99.99,,,0.00,0,weatherlink.com 1.10,2013-03-03 00:37:00,
2013-03-02 19:52:00,28.4,20.0,30.11,North,4,9.0,-999.0,72,-99.99,,,0.00,0,weatherlink.com 1.10,2013-03-03 00:52:00,